sensor_id;sensor_type;location;lat;lon;timestamp;P1;durP1;ratioP1;P2;durP2;ratioP2
11113;SDS011;5610;52.154;9.198;2023-03-05T00:00:23;7.30;;;3.75;;
11113;SDS011;5610;52.154;9.198;2023-03-05T00:03:09;13.30;;;3.60;;
11113;SDS011;5610;52.154;9.198;2023-03-05T00:05:55;12.40;;;3.42;;
11113;SDS011;5610;52.154;9.198;2023-03-05T00:08:40;9.77;;;3.47;;
11113;SDS011;5610;52.154;9.198;2023-03-05T00:11:26;7.75;;;3.30;;
11113;SDS011;5610;52.154;9.198;2023-03-05T00:14:13;11.30;;;4.07;;
11113;SDS011;5610;52.154;9.198;2023-03-05T00:17:00;11.38;;;3.15;;
11113;SDS011;5610;52.154;9.198;2023-03-05T00:19:45;10.73;;;3.03;;
11113;SDS011;5610;52.154;9.198;2023-03-05T00:22:32;9.05;;;3.53;;
11113;SDS011;5610;52.154;9.198;2023-03-05T00:25:17;10.32;;;2.92;;
11113;SDS011;5610;52.154;9.198;2023-03-05T00:28:03;8.13;;;2.90;;
11113;SDS011;5610;52.154;9.198;2023-03-05T00:30:49;9.95;;;2.90;;
11113;SDS011;5610;52.154;9.198;2023-03-05T00:33:35;12.80;;;2.70;;
11113;SDS011;5610;52.154;9.198;2023-03-05T00:36:21;4.10;;;2.45;;
11113;SDS011;5610;52.154;9.198;2023-03-05T00:39:07;8.43;;;3.20;;
11113;SDS011;5610;52.154;9.198;2023-03-05T00:41:52;8.43;;;2.95;;
11113;SDS011;5610;52.154;9.198;2023-03-05T00:44:37;8.07;;;2.47;;
11113;SDS011;5610;52.154;9.198;2023-03-05T00:47:23;9.80;;;3.28;;
11113;SDS011;5610;52.154;9.198;2023-03-05T00:50:10;8.57;;;2.85;;
11113;SDS011;5610;52.154;9.198;2023-03-05T00:52:55;9.32;;;3.25;;
11113;SDS011;5610;52.154;9.198;2023-03-05T00:55:41;8.90;;;2.90;;
11113;SDS011;5610;52.154;9.198;2023-03-05T00:58:26;9.80;;;3.00;;
11113;SDS011;5610;52.154;9.198;2023-03-05T01:01:12;11.32;;;3.60;;
11113;SDS011;5610;52.154;9.198;2023-03-05T01:03:58;8.05;;;2.70;;
11113;SDS011;5610;52.154;9.198;2023-03-05T01:06:45;12.85;;;4.68;;
11113;SDS011;5610;52.154;9.198;2023-03-05T01:09:31;9.35;;;2.70;;
11113;SDS011;5610;52.154;9.198;2023-03-05T01:12:16;6.72;;;3.00;;
11113;SDS011;5610;52.154;9.198;2023-03-05T01:15:02;12.13;;;3.20;;
11113;SDS011;5610;52.154;9.198;2023-03-05T01:17:48;7.75;;;2.70;;
11113;SDS011;5610;52.154;9.198;2023-03-05T01:20:34;5.55;;;3.03;;
11113;SDS011;5610;52.154;9.198;2023-03-05T01:23:21;10.52;;;3.00;;
11113;SDS011;5610;52.154;9.198;2023-03-05T01:26:06;11.77;;;3.05;;
11113;SDS011;5610;52.154;9.198;2023-03-05T01:28:52;11.07;;;3.65;;
11113;SDS011;5610;52.154;9.198;2023-03-05T01:31:37;8.02;;;3.58;;
11113;SDS011;5610;52.154;9.198;2023-03-05T01:34:23;13.43;;;4.05;;
11113;SDS011;5610;52.154;9.198;2023-03-05T01:37:08;13.18;;;4.05;;
11113;SDS011;5610;52.154;9.198;2023-03-05T01:39:55;8.13;;;4.00;;
11113;SDS011;5610;52.154;9.198;2023-03-05T01:42:43;7.55;;;3.33;;
11113;SDS011;5610;52.154;9.198;2023-03-05T01:45:30;12.80;;;3.70;;
11113;SDS011;5610;52.154;9.198;2023-03-05T01:48:17;10.88;;;3.60;;
11113;SDS011;5610;52.154;9.198;2023-03-05T01:51:02;6.90;;;3.70;;
11113;SDS011;5610;52.154;9.198;2023-03-05T01:53:48;8.10;;;3.90;;
11113;SDS011;5610;52.154;9.198;2023-03-05T01:56:35;10.18;;;3.40;;
11113;SDS011;5610;52.154;9.198;2023-03-05T01:59:23;10.68;;;3.33;;
11113;SDS011;5610;52.154;9.198;2023-03-05T02:02:10;6.55;;;3.45;;
11113;SDS011;5610;52.154;9.198;2023-03-05T02:04:58;9.60;;;3.58;;
11113;SDS011;5610;52.154;9.198;2023-03-05T02:07:47;10.10;;;4.07;;
11113;SDS011;5610;52.154;9.198;2023-03-05T02:10:33;11.73;;;4.72;;
11113;SDS011;5610;52.154;9.198;2023-03-05T02:13:23;10.18;;;4.30;;
11113;SDS011;5610;52.154;9.198;2023-03-05T02:16:09;8.55;;;4.50;;
11113;SDS011;5610;52.154;9.198;2023-03-05T02:18:55;9.38;;;4.30;;
11113;SDS011;5610;52.154;9.198;2023-03-05T02:21:43;8.15;;;4.60;;
11113;SDS011;5610;52.154;9.198;2023-03-05T02:24:34;5.40;;;3.65;;
11113;SDS011;5610;52.154;9.198;2023-03-05T02:27:21;8.07;;;4.28;;
11113;SDS011;5610;52.154;9.198;2023-03-05T02:30:17;8.32;;;3.60;;
11113;SDS011;5610;52.154;9.198;2023-03-05T02:33:03;10.45;;;4.13;;
11113;SDS011;5610;52.154;9.198;2023-03-05T02:35:49;10.07;;;5.10;;
11113;SDS011;5610;52.154;9.198;2023-03-05T02:38:37;5.40;;;3.80;;
11113;SDS011;5610;52.154;9.198;2023-03-05T02:41:22;8.15;;;4.70;;
11113;SDS011;5610;52.154;9.198;2023-03-05T02:44:08;9.82;;;4.60;;
11113;SDS011;5610;52.154;9.198;2023-03-05T02:46:54;11.77;;;5.00;;
11113;SDS011;5610;52.154;9.198;2023-03-05T02:49:39;8.95;;;4.65;;
11113;SDS011;5610;52.154;9.198;2023-03-05T02:52:25;7.18;;;4.30;;
11113;SDS011;5610;52.154;9.198;2023-03-05T02:55:12;8.65;;;4.63;;
11113;SDS011;5610;52.154;9.198;2023-03-05T02:57:58;13.30;;;4.65;;
11113;SDS011;5610;52.154;9.198;2023-03-05T03:00:44;14.52;;;5.50;;
11113;SDS011;5610;52.154;9.198;2023-03-05T03:03:30;10.00;;;5.20;;
11113;SDS011;5610;52.154;9.198;2023-03-05T03:06:16;9.95;;;5.55;;
11113;SDS011;5610;52.154;9.198;2023-03-05T03:09:01;16.45;;;6.50;;
11113;SDS011;5610;52.154;9.198;2023-03-05T03:11:48;11.05;;;6.30;;
11113;SDS011;5610;52.154;9.198;2023-03-05T03:14:34;7.32;;;4.53;;
11113;SDS011;5610;52.154;9.198;2023-03-05T03:17:21;7.68;;;4.82;;
11113;SDS011;5610;52.154;9.198;2023-03-05T03:20:08;11.75;;;5.35;;
11113;SDS011;5610;52.154;9.198;2023-03-05T03:22:56;8.65;;;4.90;;
11113;SDS011;5610;52.154;9.198;2023-03-05T03:25:42;9.45;;;4.53;;
11113;SDS011;5610;52.154;9.198;2023-03-05T03:28:28;10.00;;;5.60;;
11113;SDS011;5610;52.154;9.198;2023-03-05T03:31:14;9.88;;;5.10;;
11113;SDS011;5610;52.154;9.198;2023-03-05T03:33:59;10.00;;;5.90;;
11113;SDS011;5610;52.154;9.198;2023-03-05T03:36:45;8.93;;;5.05;;
11113;SDS011;5610;52.154;9.198;2023-03-05T03:39:31;12.88;;;6.00;;
11113;SDS011;5610;52.154;9.198;2023-03-05T03:42:17;10.45;;;5.90;;
11113;SDS011;5610;52.154;9.198;2023-03-05T03:45:05;11.45;;;5.70;;
11113;SDS011;5610;52.154;9.198;2023-03-05T03:47:51;13.75;;;6.57;;
11113;SDS011;5610;52.154;9.198;2023-03-05T03:50:37;10.60;;;6.05;;
11113;SDS011;5610;52.154;9.198;2023-03-05T03:53:23;10.43;;;6.20;;
11113;SDS011;5610;52.154;9.198;2023-03-05T03:56:08;12.88;;;6.53;;
11113;SDS011;5610;52.154;9.198;2023-03-05T03:58:54;10.38;;;6.63;;
11113;SDS011;5610;52.154;9.198;2023-03-05T04:01:41;11.68;;;6.65;;
11113;SDS011;5610;52.154;9.198;2023-03-05T04:04:26;15.02;;;6.72;;
11113;SDS011;5610;52.154;9.198;2023-03-05T04:07:12;9.65;;;5.07;;
11113;SDS011;5610;52.154;9.198;2023-03-05T04:09:58;12.52;;;6.60;;
11113;SDS011;5610;52.154;9.198;2023-03-05T04:12:43;10.80;;;6.10;;
11113;SDS011;5610;52.154;9.198;2023-03-05T04:15:29;10.00;;;6.50;;
11113;SDS011;5610;52.154;9.198;2023-03-05T04:18:15;6.65;;;4.90;;
11113;SDS011;5610;52.154;9.198;2023-03-05T04:21:01;14.10;;;6.35;;
11113;SDS011;5610;52.154;9.198;2023-03-05T04:23:46;9.95;;;6.20;;
11113;SDS011;5610;52.154;9.198;2023-03-05T04:26:31;11.10;;;6.35;;
11113;SDS011;5610;52.154;9.198;2023-03-05T04:29:17;10.10;;;6.75;;
11113;SDS011;5610;52.154;9.198;2023-03-05T04:32:02;9.77;;;6.82;;
11113;SDS011;5610;52.154;9.198;2023-03-05T04:34:49;11.98;;;6.20;;
11113;SDS011;5610;52.154;9.198;2023-03-05T04:37:34;12.73;;;7.00;;
11113;SDS011;5610;52.154;9.198;2023-03-05T04:40:20;8.27;;;5.63;;
11113;SDS011;5610;52.154;9.198;2023-03-05T04:43:06;9.55;;;5.43;;
11113;SDS011;5610;52.154;9.198;2023-03-05T04:45:53;8.98;;;5.90;;
11113;SDS011;5610;52.154;9.198;2023-03-05T04:48:39;11.98;;;5.90;;
11113;SDS011;5610;52.154;9.198;2023-03-05T04:51:26;10.63;;;6.15;;
11113;SDS011;5610;52.154;9.198;2023-03-05T04:54:11;10.13;;;5.72;;
11113;SDS011;5610;52.154;9.198;2023-03-05T04:56:56;6.95;;;4.80;;
11113;SDS011;5610;52.154;9.198;2023-03-05T04:59:42;8.43;;;5.45;;
11113;SDS011;5610;52.154;9.198;2023-03-05T05:02:27;6.63;;;5.30;;
11113;SDS011;5610;52.154;9.198;2023-03-05T05:05:13;8.07;;;5.28;;
11113;SDS011;5610;52.154;9.198;2023-03-05T05:08:01;7.40;;;5.00;;
11113;SDS011;5610;52.154;9.198;2023-03-05T05:10:54;8.02;;;5.30;;
11113;SDS011;5610;52.154;9.198;2023-03-05T05:13:39;6.65;;;4.70;;
11113;SDS011;5610;52.154;9.198;2023-03-05T05:16:25;9.43;;;4.72;;
11113;SDS011;5610;52.154;9.198;2023-03-05T05:19:10;11.43;;;5.13;;
11113;SDS011;5610;52.154;9.198;2023-03-05T05:21:55;9.10;;;4.88;;
11113;SDS011;5610;52.154;9.198;2023-03-05T05:24:42;7.47;;;4.80;;
11113;SDS011;5610;52.154;9.198;2023-03-05T05:27:27;8.43;;;4.68;;
11113;SDS011;5610;52.154;9.198;2023-03-05T05:30:13;7.63;;;5.13;;
11113;SDS011;5610;52.154;9.198;2023-03-05T05:32:58;7.13;;;4.22;;
11113;SDS011;5610;52.154;9.198;2023-03-05T05:35:43;5.53;;;4.22;;
11113;SDS011;5610;52.154;9.198;2023-03-05T05:38:29;8.32;;;4.70;;
11113;SDS011;5610;52.154;9.198;2023-03-05T05:41:16;6.47;;;3.83;;
11113;SDS011;5610;52.154;9.198;2023-03-05T05:44:02;5.30;;;4.20;;
11113;SDS011;5610;52.154;9.198;2023-03-05T05:46:47;9.35;;;4.50;;
11113;SDS011;5610;52.154;9.198;2023-03-05T05:49:32;7.50;;;4.43;;
11113;SDS011;5610;52.154;9.198;2023-03-05T05:52:18;7.43;;;3.95;;
11113;SDS011;5610;52.154;9.198;2023-03-05T05:55:04;6.50;;;4.22;;
11113;SDS011;5610;52.154;9.198;2023-03-05T05:57:51;6.25;;;4.60;;
11113;SDS011;5610;52.154;9.198;2023-03-05T06:00:36;7.45;;;4.47;;
11113;SDS011;5610;52.154;9.198;2023-03-05T06:03:22;6.50;;;4.57;;
11113;SDS011;5610;52.154;9.198;2023-03-05T06:06:08;7.15;;;4.25;;
11113;SDS011;5610;52.154;9.198;2023-03-05T06:08:55;8.45;;;4.65;;
11113;SDS011;5610;52.154;9.198;2023-03-05T06:11:40;7.70;;;4.63;;
11113;SDS011;5610;52.154;9.198;2023-03-05T06:14:27;8.45;;;4.70;;
11113;SDS011;5610;52.154;9.198;2023-03-05T06:17:12;7.68;;;4.43;;
11113;SDS011;5610;52.154;9.198;2023-03-05T06:19:58;12.90;;;4.90;;
11113;SDS011;5610;52.154;9.198;2023-03-05T06:22:44;7.60;;;3.67;;
11113;SDS011;5610;52.154;9.198;2023-03-05T06:25:29;7.90;;;4.82;;
11113;SDS011;5610;52.154;9.198;2023-03-05T06:28:14;7.57;;;5.07;;
11113;SDS011;5610;52.154;9.198;2023-03-05T06:31:02;8.05;;;5.22;;
11113;SDS011;5610;52.154;9.198;2023-03-05T06:33:50;10.98;;;4.72;;
11113;SDS011;5610;52.154;9.198;2023-03-05T06:36:37;7.18;;;4.97;;
11113;SDS011;5610;52.154;9.198;2023-03-05T06:39:23;6.93;;;4.90;;
11113;SDS011;5610;52.154;9.198;2023-03-05T06:42:08;7.90;;;5.97;;
11113;SDS011;5610;52.154;9.198;2023-03-05T06:44:54;7.40;;;4.88;;
11113;SDS011;5610;52.154;9.198;2023-03-05T06:47:40;10.23;;;5.50;;
11113;SDS011;5610;52.154;9.198;2023-03-05T06:50:26;8.10;;;4.85;;
11113;SDS011;5610;52.154;9.198;2023-03-05T06:53:12;6.22;;;5.10;;
11113;SDS011;5610;52.154;9.198;2023-03-05T06:55:59;6.15;;;4.60;;
11113;SDS011;5610;52.154;9.198;2023-03-05T06:58:45;7.35;;;4.57;;
11113;SDS011;5610;52.154;9.198;2023-03-05T07:01:32;6.70;;;5.00;;
11113;SDS011;5610;52.154;9.198;2023-03-05T07:04:19;6.03;;;4.57;;
11113;SDS011;5610;52.154;9.198;2023-03-05T07:07:06;6.60;;;4.82;;
11113;SDS011;5610;52.154;9.198;2023-03-05T07:09:52;5.75;;;5.05;;
11113;SDS011;5610;52.154;9.198;2023-03-05T07:12:37;8.35;;;5.55;;
11113;SDS011;5610;52.154;9.198;2023-03-05T07:15:23;5.07;;;4.53;;
11113;SDS011;5610;52.154;9.198;2023-03-05T07:18:08;9.52;;;5.30;;
11113;SDS011;5610;52.154;9.198;2023-03-05T07:20:55;4.15;;;3.75;;
11113;SDS011;5610;52.154;9.198;2023-03-05T07:23:45;5.68;;;4.25;;
11113;SDS011;5610;52.154;9.198;2023-03-05T07:26:30;4.30;;;3.90;;
11113;SDS011;5610;52.154;9.198;2023-03-05T07:29:16;5.30;;;4.00;;
11113;SDS011;5610;52.154;9.198;2023-03-05T07:32:03;4.90;;;4.22;;
11113;SDS011;5610;52.154;9.198;2023-03-05T07:34:48;5.68;;;4.75;;
11113;SDS011;5610;52.154;9.198;2023-03-05T07:37:35;4.22;;;3.85;;
11113;SDS011;5610;52.154;9.198;2023-03-05T07:40:21;5.00;;;4.57;;
11113;SDS011;5610;52.154;9.198;2023-03-05T07:43:06;9.60;;;5.20;;
11113;SDS011;5610;52.154;9.198;2023-03-05T07:45:52;13.65;;;6.05;;
11113;SDS011;5610;52.154;9.198;2023-03-05T07:48:38;10.35;;;5.75;;
11113;SDS011;5610;52.154;9.198;2023-03-05T07:51:23;7.07;;;6.38;;
11113;SDS011;5610;52.154;9.198;2023-03-05T07:54:10;6.40;;;4.95;;
11113;SDS011;5610;52.154;9.198;2023-03-05T07:56:56;6.18;;;5.57;;
11113;SDS011;5610;52.154;9.198;2023-03-05T07:59:41;5.78;;;5.10;;
11113;SDS011;5610;52.154;9.198;2023-03-05T08:02:26;7.15;;;6.47;;
11113;SDS011;5610;52.154;9.198;2023-03-05T08:05:12;8.55;;;4.72;;
11113;SDS011;5610;52.154;9.198;2023-03-05T08:07:57;7.15;;;5.03;;
11113;SDS011;5610;52.154;9.198;2023-03-05T08:10:44;7.57;;;5.18;;
11113;SDS011;5610;52.154;9.198;2023-03-05T08:13:30;5.68;;;5.07;;
11113;SDS011;5610;52.154;9.198;2023-03-05T08:16:16;5.07;;;4.53;;
11113;SDS011;5610;52.154;9.198;2023-03-05T08:19:02;6.50;;;3.83;;
11113;SDS011;5610;52.154;9.198;2023-03-05T08:21:47;9.55;;;4.57;;
11113;SDS011;5610;52.154;9.198;2023-03-05T08:24:33;4.32;;;3.80;;
11113;SDS011;5610;52.154;9.198;2023-03-05T08:27:20;7.23;;;4.00;;
11113;SDS011;5610;52.154;9.198;2023-03-05T08:30:06;5.57;;;4.63;;
11113;SDS011;5610;52.154;9.198;2023-03-05T08:32:52;4.80;;;4.30;;
11113;SDS011;5610;52.154;9.198;2023-03-05T08:35:38;6.70;;;3.97;;
11113;SDS011;5610;52.154;9.198;2023-03-05T08:38:24;4.97;;;3.78;;
11113;SDS011;5610;52.154;9.198;2023-03-05T08:41:09;11.73;;;5.90;;
11113;SDS011;5610;52.154;9.198;2023-03-05T08:43:56;4.97;;;3.95;;
11113;SDS011;5610;52.154;9.198;2023-03-05T08:46:42;5.70;;;3.50;;
11113;SDS011;5610;52.154;9.198;2023-03-05T08:49:27;5.63;;;3.97;;
11113;SDS011;5610;52.154;9.198;2023-03-05T08:52:12;12.97;;;7.03;;
11113;SDS011;5610;52.154;9.198;2023-03-05T08:54:57;10.03;;;6.90;;
11113;SDS011;5610;52.154;9.198;2023-03-05T08:57:43;7.60;;;5.27;;
11113;SDS011;5610;52.154;9.198;2023-03-05T09:00:29;8.17;;;4.63;;
11113;SDS011;5610;52.154;9.198;2023-03-05T09:03:15;5.03;;;3.50;;
11113;SDS011;5610;52.154;9.198;2023-03-05T09:06:01;5.50;;;4.20;;
11113;SDS011;5610;52.154;9.198;2023-03-05T09:08:48;4.33;;;3.93;;
11113;SDS011;5610;52.154;9.198;2023-03-05T09:11:33;6.20;;;3.80;;
11113;SDS011;5610;52.154;9.198;2023-03-05T09:14:19;11.57;;;7.70;;
11113;SDS011;5610;52.154;9.198;2023-03-05T09:17:06;8.07;;;5.60;;
11113;SDS011;5610;52.154;9.198;2023-03-05T09:19:51;9.37;;;6.10;;
11113;SDS011;5610;52.154;9.198;2023-03-05T09:22:36;8.90;;;5.23;;
11113;SDS011;5610;52.154;9.198;2023-03-05T09:25:22;9.17;;;5.20;;
11113;SDS011;5610;52.154;9.198;2023-03-05T09:28:07;6.33;;;3.73;;
11113;SDS011;5610;52.154;9.198;2023-03-05T09:30:53;7.63;;;3.07;;
11113;SDS011;5610;52.154;9.198;2023-03-05T09:33:40;7.23;;;3.40;;
11113;SDS011;5610;52.154;9.198;2023-03-05T09:36:27;5.50;;;2.53;;
11113;SDS011;5610;52.154;9.198;2023-03-05T09:39:13;3.23;;;2.03;;
11113;SDS011;5610;52.154;9.198;2023-03-05T09:45:13;3.57;;;2.30;;
11113;SDS011;5610;52.154;9.198;2023-03-05T09:48:06;7.50;;;3.23;;
11113;SDS011;5610;52.154;9.198;2023-03-05T09:51:02;5.77;;;2.20;;
11113;SDS011;5610;52.154;9.198;2023-03-05T09:53:49;4.03;;;1.80;;
11113;SDS011;5610;52.154;9.198;2023-03-05T09:56:41;2.63;;;1.70;;
11113;SDS011;5610;52.154;9.198;2023-03-05T09:59:32;3.97;;;2.43;;
11113;SDS011;5610;52.154;9.198;2023-03-05T10:02:22;4.10;;;1.80;;
11113;SDS011;5610;52.154;9.198;2023-03-05T10:05:12;5.13;;;2.33;;
11113;SDS011;5610;52.154;9.198;2023-03-05T10:08:04;4.90;;;1.73;;
11113;SDS011;5610;52.154;9.198;2023-03-05T10:10:50;3.17;;;1.73;;
11113;SDS011;5610;52.154;9.198;2023-03-05T10:13:38;3.60;;;1.70;;
11113;SDS011;5610;52.154;9.198;2023-03-05T10:23:14;3.07;;;2.07;;
11113;SDS011;5610;52.154;9.198;2023-03-05T10:26:14;5.37;;;2.90;;
11113;SDS011;5610;52.154;9.198;2023-03-05T10:29:21;5.13;;;2.73;;
11113;SDS011;5610;52.154;9.198;2023-03-05T10:32:27;3.10;;;1.93;;
11113;SDS011;5610;52.154;9.198;2023-03-05T10:35:31;3.90;;;2.90;;
11113;SDS011;5610;52.154;9.198;2023-03-05T10:38:33;3.40;;;1.73;;
11113;SDS011;5610;52.154;9.198;2023-03-05T10:41:31;3.53;;;2.10;;
11113;SDS011;5610;52.154;9.198;2023-03-05T10:44:25;3.97;;;1.40;;
11113;SDS011;5610;52.154;9.198;2023-03-05T10:47:20;3.40;;;1.60;;
11113;SDS011;5610;52.154;9.198;2023-03-05T10:50:12;10.50;;;2.33;;
11113;SDS011;5610;52.154;9.198;2023-03-05T10:53:05;5.83;;;2.60;;
11113;SDS011;5610;52.154;9.198;2023-03-05T10:56:01;3.57;;;1.70;;
11113;SDS011;5610;52.154;9.198;2023-03-05T10:58:47;3.13;;;1.40;;
11113;SDS011;5610;52.154;9.198;2023-03-05T11:01:34;2.47;;;1.30;;
11113;SDS011;5610;52.154;9.198;2023-03-05T11:04:27;4.10;;;1.73;;
11113;SDS011;5610;52.154;9.198;2023-03-05T11:10:20;6.83;;;1.60;;
11113;SDS011;5610;52.154;9.198;2023-03-05T11:13:18;5.30;;;1.60;;
11113;SDS011;5610;52.154;9.198;2023-03-05T11:16:13;4.33;;;2.00;;
11113;SDS011;5610;52.154;9.198;2023-03-05T11:19:15;3.43;;;2.00;;
11113;SDS011;5610;52.154;9.198;2023-03-05T11:22:06;3.67;;;2.17;;
11113;SDS011;5610;52.154;9.198;2023-03-05T11:25:03;3.03;;;1.90;;
11113;SDS011;5610;52.154;9.198;2023-03-05T11:27:59;3.17;;;1.20;;
11113;SDS011;5610;52.154;9.198;2023-03-05T11:30:54;1.90;;;1.50;;
11113;SDS011;5610;52.154;9.198;2023-03-05T11:33:52;2.50;;;1.70;;
11113;SDS011;5610;52.154;9.198;2023-03-05T11:36:39;2.50;;;1.73;;
11113;SDS011;5610;52.154;9.198;2023-03-05T11:39:27;3.23;;;1.60;;
11113;SDS011;5610;52.154;9.198;2023-03-05T11:42:15;4.87;;;1.73;;
11113;SDS011;5610;52.154;9.198;2023-03-05T11:45:10;3.60;;;1.30;;
11113;SDS011;5610;52.154;9.198;2023-03-05T11:48:05;2.20;;;1.30;;
11113;SDS011;5610;52.154;9.198;2023-03-05T11:50:53;2.10;;;0.93;;
11113;SDS011;5610;52.154;9.198;2023-03-05T11:53:41;2.63;;;1.23;;
11113;SDS011;5610;52.154;9.198;2023-03-05T11:56:30;2.20;;;1.00;;
11113;SDS011;5610;52.154;9.198;2023-03-05T11:59:17;2.10;;;1.10;;
11113;SDS011;5610;52.154;9.198;2023-03-05T12:02:13;1.93;;;1.17;;
11113;SDS011;5610;52.154;9.198;2023-03-05T12:05:03;2.60;;;1.23;;
11113;SDS011;5610;52.154;9.198;2023-03-05T12:07:50;3.50;;;1.20;;
11113;SDS011;5610;52.154;9.198;2023-03-05T12:10:39;1.13;;;0.80;;
11113;SDS011;5610;52.154;9.198;2023-03-05T12:13:26;1.80;;;0.90;;
11113;SDS011;5610;52.154;9.198;2023-03-05T12:16:27;1.43;;;0.87;;
11113;SDS011;5610;52.154;9.198;2023-03-05T12:19:24;2.27;;;1.03;;
11113;SDS011;5610;52.154;9.198;2023-03-05T12:22:20;1.70;;;0.90;;
11113;SDS011;5610;52.154;9.198;2023-03-05T12:25:24;2.60;;;0.97;;
11113;SDS011;5610;52.154;9.198;2023-03-05T12:28:12;3.30;;;0.97;;
11113;SDS011;5610;52.154;9.198;2023-03-05T12:31:01;3.10;;;1.00;;
11113;SDS011;5610;52.154;9.198;2023-03-05T12:33:48;2.37;;;1.00;;
11113;SDS011;5610;52.154;9.198;2023-03-05T12:36:34;1.57;;;1.10;;
11113;SDS011;5610;52.154;9.198;2023-03-05T12:42:41;1.97;;;1.00;;
11113;SDS011;5610;52.154;9.198;2023-03-05T12:45:34;2.60;;;1.03;;
11113;SDS011;5610;52.154;9.198;2023-03-05T12:48:40;1.87;;;1.00;;
11113;SDS011;5610;52.154;9.198;2023-03-05T12:51:30;2.00;;;1.10;;
11113;SDS011;5610;52.154;9.198;2023-03-05T12:54:22;1.00;;;0.80;;
11113;SDS011;5610;52.154;9.198;2023-03-05T12:57:16;2.20;;;1.10;;
11113;SDS011;5610;52.154;9.198;2023-03-05T13:00:05;2.37;;;1.03;;
11113;SDS011;5610;52.154;9.198;2023-03-05T13:02:56;1.73;;;0.80;;
11113;SDS011;5610;52.154;9.198;2023-03-05T13:05:48;2.20;;;1.67;;
11113;SDS011;5610;52.154;9.198;2023-03-05T13:08:35;2.50;;;0.83;;
11113;SDS011;5610;52.154;9.198;2023-03-05T13:11:21;1.33;;;0.93;;
11113;SDS011;5610;52.154;9.198;2023-03-05T13:14:18;1.23;;;0.80;;
11113;SDS011;5610;52.154;9.198;2023-03-05T13:17:23;2.43;;;0.90;;
11113;SDS011;5610;52.154;9.198;2023-03-05T13:23:22;4.03;;;1.20;;
11113;SDS011;5610;52.154;9.198;2023-03-05T13:26:10;1.83;;;1.00;;
11113;SDS011;5610;52.154;9.198;2023-03-05T13:29:02;4.23;;;1.23;;
11113;SDS011;5610;52.154;9.198;2023-03-05T13:31:53;2.50;;;1.37;;
11113;SDS011;5610;52.154;9.198;2023-03-05T13:34:41;2.80;;;1.60;;
11113;SDS011;5610;52.154;9.198;2023-03-05T13:37:30;2.60;;;1.20;;
11113;SDS011;5610;52.154;9.198;2023-03-05T13:40:19;5.00;;;1.50;;
11113;SDS011;5610;52.154;9.198;2023-03-05T13:43:10;2.57;;;1.30;;
11113;SDS011;5610;52.154;9.198;2023-03-05T13:45:56;3.00;;;1.53;;
11113;SDS011;5610;52.154;9.198;2023-03-05T13:48:43;1.50;;;1.40;;
11113;SDS011;5610;52.154;9.198;2023-03-05T13:51:41;1.43;;;1.27;;
11113;SDS011;5610;52.154;9.198;2023-03-05T13:54:27;6.70;;;1.40;;
11113;SDS011;5610;52.154;9.198;2023-03-05T13:57:25;3.37;;;1.57;;
11113;SDS011;5610;52.154;9.198;2023-03-05T14:00:28;2.57;;;1.73;;
11113;SDS011;5610;52.154;9.198;2023-03-05T14:03:20;4.90;;;1.37;;
11113;SDS011;5610;52.154;9.198;2023-03-05T14:06:09;3.10;;;1.40;;
11113;SDS011;5610;52.154;9.198;2023-03-05T14:08:59;2.33;;;1.40;;
11113;SDS011;5610;52.154;9.198;2023-03-05T14:11:52;2.77;;;1.37;;
11113;SDS011;5610;52.154;9.198;2023-03-05T14:14:38;3.97;;;1.80;;
11113;SDS011;5610;52.154;9.198;2023-03-05T14:17:36;6.17;;;2.57;;
11113;SDS011;5610;52.154;9.198;2023-03-05T14:20:24;1.77;;;1.23;;
11113;SDS011;5610;52.154;9.198;2023-03-05T14:23:29;1.23;;;1.13;;
11113;SDS011;5610;52.154;9.198;2023-03-05T14:26:20;2.00;;;1.43;;
11113;SDS011;5610;52.154;9.198;2023-03-05T14:29:12;2.10;;;1.13;;
11113;SDS011;5610;52.154;9.198;2023-03-05T14:32:02;2.10;;;1.20;;
11113;SDS011;5610;52.154;9.198;2023-03-05T14:34:51;4.43;;;1.30;;
11113;SDS011;5610;52.154;9.198;2023-03-05T14:37:40;2.37;;;1.37;;
11113;SDS011;5610;52.154;9.198;2023-03-05T14:40:30;3.03;;;2.00;;
11113;SDS011;5610;52.154;9.198;2023-03-05T14:43:16;3.20;;;1.80;;
11113;SDS011;5610;52.154;9.198;2023-03-05T14:46:02;2.20;;;2.00;;
11113;SDS011;5610;52.154;9.198;2023-03-05T14:48:48;4.13;;;2.30;;
11113;SDS011;5610;52.154;9.198;2023-03-05T14:51:36;4.60;;;2.43;;
11113;SDS011;5610;52.154;9.198;2023-03-05T14:54:23;5.47;;;2.23;;
11113;SDS011;5610;52.154;9.198;2023-03-05T14:57:11;2.67;;;2.43;;
11113;SDS011;5610;52.154;9.198;2023-03-05T15:00:00;3.33;;;2.07;;
11113;SDS011;5610;52.154;9.198;2023-03-05T15:02:45;2.30;;;1.50;;
11113;SDS011;5610;52.154;9.198;2023-03-05T15:05:30;3.40;;;1.80;;
11113;SDS011;5610;52.154;9.198;2023-03-05T15:08:17;4.57;;;3.40;;
11113;SDS011;5610;52.154;9.198;2023-03-05T15:11:06;4.20;;;1.37;;
11113;SDS011;5610;52.154;9.198;2023-03-05T15:13:53;1.03;;;0.87;;
11113;SDS011;5610;52.154;9.198;2023-03-05T15:16:38;3.17;;;1.60;;
11113;SDS011;5610;52.154;9.198;2023-03-05T15:19:27;2.27;;;1.13;;
11113;SDS011;5610;52.154;9.198;2023-03-05T15:22:12;2.93;;;1.23;;
11113;SDS011;5610;52.154;9.198;2023-03-05T15:24:58;2.50;;;1.20;;
11113;SDS011;5610;52.154;9.198;2023-03-05T15:27:44;2.50;;;1.20;;
11113;SDS011;5610;52.154;9.198;2023-03-05T15:30:31;2.67;;;1.77;;
11113;SDS011;5610;52.154;9.198;2023-03-05T15:33:17;2.30;;;1.17;;
11113;SDS011;5610;52.154;9.198;2023-03-05T15:36:03;2.03;;;1.40;;
11113;SDS011;5610;52.154;9.198;2023-03-05T15:38:49;4.97;;;1.70;;
11113;SDS011;5610;52.154;9.198;2023-03-05T15:41:34;4.63;;;1.63;;
11113;SDS011;5610;52.154;9.198;2023-03-05T15:44:19;9.03;;;4.77;;
11113;SDS011;5610;52.154;9.198;2023-03-05T15:47:06;3.80;;;1.93;;
11113;SDS011;5610;52.154;9.198;2023-03-05T15:49:51;4.27;;;1.60;;
11113;SDS011;5610;52.154;9.198;2023-03-05T15:52:37;2.07;;;1.30;;
11113;SDS011;5610;52.154;9.198;2023-03-05T15:55:22;3.77;;;1.57;;
11113;SDS011;5610;52.154;9.198;2023-03-05T15:58:08;3.07;;;1.73;;
11113;SDS011;5610;52.154;9.198;2023-03-05T16:00:53;3.40;;;2.40;;
11113;SDS011;5610;52.154;9.198;2023-03-05T16:03:40;5.97;;;1.93;;
11113;SDS011;5610;52.154;9.198;2023-03-05T16:06:25;3.40;;;1.70;;
11113;SDS011;5610;52.154;9.198;2023-03-05T16:09:11;3.17;;;1.93;;
11113;SDS011;5610;52.154;9.198;2023-03-05T16:11:57;3.93;;;1.50;;
11113;SDS011;5610;52.154;9.198;2023-03-05T16:14:42;1.83;;;1.47;;
11113;SDS011;5610;52.154;9.198;2023-03-05T16:17:29;5.30;;;1.80;;
11113;SDS011;5610;52.154;9.198;2023-03-05T16:20:16;1.57;;;1.00;;
11113;SDS011;5610;52.154;9.198;2023-03-05T16:23:01;4.23;;;1.57;;
11113;SDS011;5610;52.154;9.198;2023-03-05T16:25:47;2.63;;;1.87;;
11113;SDS011;5610;52.154;9.198;2023-03-05T16:28:34;3.80;;;1.67;;
11113;SDS011;5610;52.154;9.198;2023-03-05T16:31:19;2.00;;;1.30;;
11113;SDS011;5610;52.154;9.198;2023-03-05T16:34:04;3.20;;;2.00;;
11113;SDS011;5610;52.154;9.198;2023-03-05T16:36:51;2.57;;;1.80;;
11113;SDS011;5610;52.154;9.198;2023-03-05T16:39:36;3.40;;;1.57;;
11113;SDS011;5610;52.154;9.198;2023-03-05T16:42:23;4.70;;;2.20;;
11113;SDS011;5610;52.154;9.198;2023-03-05T16:45:09;2.47;;;2.00;;
11113;SDS011;5610;52.154;9.198;2023-03-05T16:47:55;3.07;;;1.70;;
11113;SDS011;5610;52.154;9.198;2023-03-05T16:50:42;7.17;;;1.83;;
11113;SDS011;5610;52.154;9.198;2023-03-05T16:53:29;2.70;;;1.57;;
11113;SDS011;5610;52.154;9.198;2023-03-05T16:56:14;8.90;;;1.50;;
11113;SDS011;5610;52.154;9.198;2023-03-05T16:58:59;3.70;;;1.37;;
11113;SDS011;5610;52.154;9.198;2023-03-05T17:01:45;3.73;;;1.67;;
11113;SDS011;5610;52.154;9.198;2023-03-05T17:04:30;4.97;;;1.70;;
11113;SDS011;5610;52.154;9.198;2023-03-05T17:07:16;2.07;;;1.53;;
11113;SDS011;5610;52.154;9.198;2023-03-05T17:10:03;12.80;;;8.67;;
11113;SDS011;5610;52.154;9.198;2023-03-05T17:12:49;3.57;;;2.87;;
11113;SDS011;5610;52.154;9.198;2023-03-05T17:15:35;2.03;;;1.60;;
11113;SDS011;5610;52.154;9.198;2023-03-05T17:18:21;3.37;;;2.40;;
11113;SDS011;5610;52.154;9.198;2023-03-05T17:21:07;5.87;;;2.40;;